sensor_id;sensor_type;location;lat;lon;timestamp;temperature;humidity
65972;SHT31;52726;48.852;9.152;2022-08-23T00:00:33;18.05;62.78
65972;SHT31;52726;48.852;9.152;2022-08-23T00:02:58;18.09;62.73
65972;SHT31;52726;48.852;9.152;2022-08-23T00:05:24;18.02;62.68
65972;SHT31;52726;48.852;9.152;2022-08-23T00:07:50;17.95;63.55
65972;SHT31;52726;48.852;9.152;2022-08-23T00:10:16;17.90;63.86
65972;SHT31;52726;48.852;9.152;2022-08-23T00:12:43;17.73;64.94
65972;SHT31;52726;48.852;9.152;2022-08-23T00:15:11;17.49;65.74
65972;SHT31;52726;48.852;9.152;2022-08-23T00:17:38;17.26;65.84
65972;SHT31;52726;48.852;9.152;2022-08-23T00:20:05;17.11;66.47
65972;SHT31;52726;48.852;9.152;2022-08-23T00:22:32;16.98;67.24
65972;SHT31;52726;48.852;9.152;2022-08-23T00:24:57;16.89;67.64
65972;SHT31;52726;48.852;9.152;2022-08-23T00:27:22;16.88;67.80
65972;SHT31;52726;48.852;9.152;2022-08-23T00:29:51;16.81;67.91
65972;SHT31;52726;48.852;9.152;2022-08-23T00:32:24;16.79;68.23
65972;SHT31;52726;48.852;9.152;2022-08-23T00:34:50;16.82;67.27
65972;SHT31;52726;48.852;9.152;2022-08-23T00:37:16;16.92;67.09
65972;SHT31;52726;48.852;9.152;2022-08-23T00:39:42;16.89;67.38
65972;SHT31;52726;48.852;9.152;2022-08-23T00:45:19;16.63;69.10
65972;SHT31;52726;48.852;9.152;2022-08-23T00:48:05;16.46;69.63
65972;SHT31;52726;48.852;9.152;2022-08-23T00:53:21;16.34;69.98
65972;SHT31;52726;48.852;9.152;2022-08-23T00:55:50;16.30;70.16
65972;SHT31;52726;48.852;9.152;2022-08-23T00:58:19;16.30;69.81
65972;SHT31;52726;48.852;9.152;2022-08-23T01:00:46;16.27;69.53
65972;SHT31;52726;48.852;9.152;2022-08-23T01:03:12;16.16;70.79
65972;SHT31;52726;48.852;9.152;2022-08-23T01:05:50;16.05;71.33
65972;SHT31;52726;48.852;9.152;2022-08-23T01:08:20;15.96;71.62
65972;SHT31;52726;48.852;9.152;2022-08-23T01:10:53;15.89;71.27
65972;SHT31;52726;48.852;9.152;2022-08-23T01:13:34;15.85;71.59
65972;SHT31;52726;48.852;9.152;2022-08-23T01:16:12;15.86;71.51
65972;SHT31;52726;48.852;9.152;2022-08-23T01:18:40;15.75;71.41
65972;SHT31;52726;48.852;9.152;2022-08-23T01:21:15;15.75;71.80
65972;SHT31;52726;48.852;9.152;2022-08-23T01:23:45;15.71;72.12
65972;SHT31;52726;48.852;9.152;2022-08-23T01:26:14;15.72;72.28
65972;SHT31;52726;48.852;9.152;2022-08-23T01:28:40;15.65;72.49
65972;SHT31;52726;48.852;9.152;2022-08-23T01:31:06;15.65;73.27
65972;SHT31;52726;48.852;9.152;2022-08-23T01:33:32;15.61;73.38
65972;SHT31;52726;48.852;9.152;2022-08-23T01:35:58;15.58;73.44
65972;SHT31;52726;48.852;9.152;2022-08-23T01:38:24;15.59;73.84
65972;SHT31;52726;48.852;9.152;2022-08-23T01:40:50;15.58;73.73
65972;SHT31;52726;48.852;9.152;2022-08-23T01:43:17;15.57;73.94
65972;SHT31;52726;48.852;9.152;2022-08-23T01:45:44;15.59;71.94
65972;SHT31;52726;48.852;9.152;2022-08-23T01:48:10;15.65;73.41
65972;SHT31;52726;48.852;9.152;2022-08-23T01:50:36;15.59;73.22
65972;SHT31;52726;48.852;9.152;2022-08-23T01:53:01;15.55;74.02
65972;SHT31;52726;48.852;9.152;2022-08-23T01:55:27;15.48;74.41
65972;SHT31;52726;48.852;9.152;2022-08-23T01:57:55;15.45;74.30
65972;SHT31;52726;48.852;9.152;2022-08-23T02:00:32;15.40;74.13
65972;SHT31;52726;48.852;9.152;2022-08-23T02:02:58;15.30;74.69
65972;SHT31;52726;48.852;9.152;2022-08-23T02:05:25;15.17;74.57
65972;SHT31;52726;48.852;9.152;2022-08-23T02:07:51;14.97;74.94
65972;SHT31;52726;48.852;9.152;2022-08-23T02:10:17;14.90;75.32
65972;SHT31;52726;48.852;9.152;2022-08-23T02:12:43;14.85;75.62
65972;SHT31;52726;48.852;9.152;2022-08-23T02:15:08;14.79;75.47
65972;SHT31;52726;48.852;9.152;2022-08-23T02:17:34;14.80;75.97
65972;SHT31;52726;48.852;9.152;2022-08-23T02:20:00;14.79;76.65
65972;SHT31;52726;48.852;9.152;2022-08-23T02:22:27;14.76;76.84
65972;SHT31;52726;48.852;9.152;2022-08-23T02:24:53;14.75;77.05
65972;SHT31;52726;48.852;9.152;2022-08-23T02:27:19;14.75;77.18
65972;SHT31;52726;48.852;9.152;2022-08-23T02:29:45;14.72;76.92
65972;SHT31;52726;48.852;9.152;2022-08-23T02:32:13;14.73;77.03
65972;SHT31;52726;48.852;9.152;2022-08-23T02:34:40;14.73;77.25
65972;SHT31;52726;48.852;9.152;2022-08-23T02:37:07;14.73;77.58
65972;SHT31;52726;48.852;9.152;2022-08-23T02:39:33;14.72;77.55
65972;SHT31;52726;48.852;9.152;2022-08-23T02:41:58;14.67;77.13
65972;SHT31;52726;48.852;9.152;2022-08-23T02:44:25;14.67;77.95
65972;SHT31;52726;48.852;9.152;2022-08-23T02:46:50;14.69;78.00
65972;SHT31;52726;48.852;9.152;2022-08-23T02:49:16;14.68;77.61
65972;SHT31;52726;48.852;9.152;2022-08-23T02:51:41;14.65;77.31
65972;SHT31;52726;48.852;9.152;2022-08-23T02:54:07;14.62;78.30
65972;SHT31;52726;48.852;9.152;2022-08-23T02:56:33;14.58;78.32
65972;SHT31;52726;48.852;9.152;2022-08-23T02:58:58;14.58;78.60
65972;SHT31;52726;48.852;9.152;2022-08-23T03:01:30;14.54;77.88
65972;SHT31;52726;48.852;9.152;2022-08-23T03:03:56;14.51;78.89
65972;SHT31;52726;48.852;9.152;2022-08-23T03:06:22;14.46;78.52
65972;SHT31;52726;48.852;9.152;2022-08-23T03:08:48;14.48;78.66
65972;SHT31;52726;48.852;9.152;2022-08-23T03:11:16;14.46;79.17
65972;SHT31;52726;48.852;9.152;2022-08-23T03:13:42;14.48;78.83
65972;SHT31;52726;48.852;9.152;2022-08-23T03:16:09;14.45;78.73
65972;SHT31;52726;48.852;9.152;2022-08-23T03:18:36;14.44;78.94
65972;SHT31;52726;48.852;9.152;2022-08-23T03:21:03;14.46;79.09
65972;SHT31;52726;48.852;9.152;2022-08-23T03:23:29;14.46;77.16
65972;SHT31;52726;48.852;9.152;2022-08-23T03:25:59;14.46;79.49
65972;SHT31;52726;48.852;9.152;2022-08-23T03:28:25;14.45;79.35
65972;SHT31;52726;48.852;9.152;2022-08-23T03:30:51;14.45;78.45
65972;SHT31;52726;48.852;9.152;2022-08-23T03:33:17;14.45;78.77
65972;SHT31;52726;48.852;9.152;2022-08-23T03:35:43;14.46;79.17
65972;SHT31;52726;48.852;9.152;2022-08-23T03:38:09;14.44;79.23
65972;SHT31;52726;48.852;9.152;2022-08-23T03:40:34;14.38;79.52
65972;SHT31;52726;48.852;9.152;2022-08-23T03:43:00;14.38;78.72
65972;SHT31;52726;48.852;9.152;2022-08-23T03:45:26;14.40;77.81
65972;SHT31;52726;48.852;9.152;2022-08-23T03:47:52;14.38;79.23
65972;SHT31;52726;48.852;9.152;2022-08-23T03:50:17;14.37;79.23
65972;SHT31;52726;48.852;9.152;2022-08-23T03:52:43;14.37;79.69
65972;SHT31;52726;48.852;9.152;2022-08-23T03:55:08;14.38;79.23
65972;SHT31;52726;48.852;9.152;2022-08-23T03:57:34;14.38;78.96
65972;SHT31;52726;48.852;9.152;2022-08-23T03:59:59;14.46;78.57
65972;SHT31;52726;48.852;9.152;2022-08-23T04:02:25;14.52;77.08
65972;SHT31;52726;48.852;9.152;2022-08-23T04:04:51;14.59;78.06
65972;SHT31;52726;48.852;9.152;2022-08-23T04:07:19;14.68;78.43
65972;SHT31;52726;48.852;9.152;2022-08-23T04:09:45;14.67;76.75
65972;SHT31;52726;48.852;9.152;2022-08-23T04:12:11;14.72;77.79
65972;SHT31;52726;48.852;9.152;2022-08-23T04:14:36;14.83;78.47
65972;SHT31;52726;48.852;9.152;2022-08-23T04:17:01;14.90;77.58
65972;SHT31;52726;48.852;9.152;2022-08-23T04:19:27;14.97;78.32
65972;SHT31;52726;48.852;9.152;2022-08-23T04:21:52;14.90;77.74
65972;SHT31;52726;48.852;9.152;2022-08-23T04:24:17;14.96;78.30
65972;SHT31;52726;48.852;9.152;2022-08-23T04:26:43;14.92;77.52
65972;SHT31;52726;48.852;9.152;2022-08-23T04:29:08;14.95;78.00
65972;SHT31;52726;48.852;9.152;2022-08-23T04:31:36;15.03;77.95
65972;SHT31;52726;48.852;9.152;2022-08-23T04:34:02;15.06;77.56
65972;SHT31;52726;48.852;9.152;2022-08-23T04:36:31;15.02;77.10
65972;SHT31;52726;48.852;9.152;2022-08-23T04:38:58;15.03;77.10
65972;SHT31;52726;48.852;9.152;2022-08-23T04:41:24;15.00;77.27
65972;SHT31;52726;48.852;9.152;2022-08-23T04:44:08;14.96;76.81
65972;SHT31;52726;48.852;9.152;2022-08-23T04:46:33;14.96;77.47
65972;SHT31;52726;48.852;9.152;2022-08-23T04:48:59;15.00;77.50
65972;SHT31;52726;48.852;9.152;2022-08-23T04:51:25;15.06;76.88
65972;SHT31;52726;48.852;9.152;2022-08-23T04:53:50;15.06;77.04
65972;SHT31;52726;48.852;9.152;2022-08-23T04:56:15;15.09;77.06
65972;SHT31;52726;48.852;9.152;2022-08-23T04:58:41;15.10;77.12
65972;SHT31;52726;48.852;9.152;2022-08-23T05:01:07;15.07;76.04
65972;SHT31;52726;48.852;9.152;2022-08-23T05:03:34;15.10;76.64
65972;SHT31;52726;48.852;9.152;2022-08-23T05:06:00;15.16;76.01
65972;SHT31;52726;48.852;9.152;2022-08-23T05:08:25;15.23;76.16
65972;SHT31;52726;48.852;9.152;2022-08-23T05:10:51;15.23;76.84
65972;SHT31;52726;48.852;9.152;2022-08-23T05:13:17;15.26;76.85
65972;SHT31;52726;48.852;9.152;2022-08-23T05:15:42;15.31;76.09
65972;SHT31;52726;48.852;9.152;2022-08-23T05:18:08;15.37;76.06
65972;SHT31;52726;48.852;9.152;2022-08-23T05:20:34;15.38;76.60
65972;SHT31;52726;48.852;9.152;2022-08-23T05:23:00;15.41;76.10
65972;SHT31;52726;48.852;9.152;2022-08-23T05:25:25;15.40;76.34
65972;SHT31;52726;48.852;9.152;2022-08-23T05:28:11;15.43;75.49
65972;SHT31;52726;48.852;9.152;2022-08-23T05:30:36;15.47;75.36
65972;SHT31;52726;48.852;9.152;2022-08-23T05:33:02;15.53;75.81
65972;SHT31;52726;48.852;9.152;2022-08-23T05:35:29;15.59;75.69
65972;SHT31;52726;48.852;9.152;2022-08-23T05:37:54;15.62;75.61
65972;SHT31;52726;48.852;9.152;2022-08-23T05:40:20;15.64;75.33
65972;SHT31;52726;48.852;9.152;2022-08-23T05:42:45;15.72;74.89
65972;SHT31;52726;48.852;9.152;2022-08-23T05:45:10;15.83;75.26
65972;SHT31;52726;48.852;9.152;2022-08-23T05:47:35;15.91;73.85
65972;SHT31;52726;48.852;9.152;2022-08-23T05:50:01;15.98;74.64
65972;SHT31;52726;48.852;9.152;2022-08-23T05:52:26;15.99;74.72
65972;SHT31;52726;48.852;9.152;2022-08-23T05:54:52;16.05;74.92
65972;SHT31;52726;48.852;9.152;2022-08-23T05:57:17;16.12;74.10
65972;SHT31;52726;48.852;9.152;2022-08-23T05:59:42;16.22;74.24
65972;SHT31;52726;48.852;9.152;2022-08-23T06:02:08;16.26;73.91
65972;SHT31;52726;48.852;9.152;2022-08-23T06:04:33;16.34;71.93
65972;SHT31;52726;48.852;9.152;2022-08-23T06:06:59;16.46;72.67
65972;SHT31;52726;48.852;9.152;2022-08-23T06:09:24;16.60;73.27
65972;SHT31;52726;48.852;9.152;2022-08-23T06:11:50;16.75;72.57
65972;SHT31;52726;48.852;9.152;2022-08-23T06:14:16;16.91;71.47
65972;SHT31;52726;48.852;9.152;2022-08-23T06:16:46;17.08;70.37
65972;SHT31;52726;48.852;9.152;2022-08-23T06:19:13;17.18;69.47
65972;SHT31;52726;48.852;9.152;2022-08-23T06:21:39;17.32;69.60
65972;SHT31;52726;48.852;9.152;2022-08-23T06:24:05;17.43;70.95
65972;SHT31;52726;48.852;9.152;2022-08-23T06:26:34;17.63;70.06
65972;SHT31;52726;48.852;9.152;2022-08-23T06:29:02;17.80;68.70
65972;SHT31;52726;48.852;9.152;2022-08-23T06:31:29;18.00;69.66
65972;SHT31;52726;48.852;9.152;2022-08-23T06:34:27;18.25;68.19
65972;SHT31;52726;48.852;9.152;2022-08-23T06:36:59;18.56;67.10
65972;SHT31;52726;48.852;9.152;2022-08-23T06:39:28;19.22;64.76
65972;SHT31;52726;48.852;9.152;2022-08-23T06:42:08;20.20;61.46
65972;SHT31;52726;48.852;9.152;2022-08-23T06:44:34;20.80;59.89
65972;SHT31;52726;48.852;9.152;2022-08-23T06:47:01;21.30;57.88
65972;SHT31;52726;48.852;9.152;2022-08-23T06:49:26;21.89;57.17
65972;SHT31;52726;48.852;9.152;2022-08-23T06:51:55;22.33;55.89
65972;SHT31;52726;48.852;9.152;2022-08-23T06:54:22;22.90;54.98
65972;SHT31;52726;48.852;9.152;2022-08-23T06:56:49;22.96;53.50
65972;SHT31;52726;48.852;9.152;2022-08-23T06:59:15;23.12;53.49
65972;SHT31;52726;48.852;9.152;2022-08-23T07:01:55;23.33;53.34
65972;SHT31;52726;48.852;9.152;2022-08-23T07:04:30;23.85;52.01
65972;SHT31;52726;48.852;9.152;2022-08-23T07:06:56;24.00;51.06
65972;SHT31;52726;48.852;9.152;2022-08-23T07:09:23;24.11;50.51
65972;SHT31;52726;48.852;9.152;2022-08-23T07:11:48;24.19;49.13
65972;SHT31;52726;48.852;9.152;2022-08-23T07:14:16;24.59;47.70
65972;SHT31;52726;48.852;9.152;2022-08-23T07:17:05;24.55;48.47
65972;SHT31;52726;48.852;9.152;2022-08-23T07:19:32;24.97;47.69
65972;SHT31;52726;48.852;9.152;2022-08-23T07:21:59;25.22;46.31
65972;SHT31;52726;48.852;9.152;2022-08-23T07:24:27;25.45;47.65
65972;SHT31;52726;48.852;9.152;2022-08-23T07:26:52;25.48;47.11
65972;SHT31;52726;48.852;9.152;2022-08-23T07:29:19;25.70;46.80
65972;SHT31;52726;48.852;9.152;2022-08-23T07:31:49;26.05;45.11
65972;SHT31;52726;48.852;9.152;2022-08-23T07:34:15;26.37;45.18
65972;SHT31;52726;48.852;9.152;2022-08-23T07:36:41;26.58;44.73
65972;SHT31;52726;48.852;9.152;2022-08-23T07:39:09;27.02;43.87
65972;SHT31;52726;48.852;9.152;2022-08-23T07:41:34;26.96;43.49
65972;SHT31;52726;48.852;9.152;2022-08-23T07:44:04;27.02;44.60
65972;SHT31;52726;48.852;9.152;2022-08-23T07:46:30;26.96;42.15
65972;SHT31;52726;48.852;9.152;2022-08-23T07:48:58;26.42;42.86
65972;SHT31;52726;48.852;9.152;2022-08-23T07:51:24;26.79;44.36
65972;SHT31;52726;48.852;9.152;2022-08-23T07:53:50;27.04;43.64
65972;SHT31;52726;48.852;9.152;2022-08-23T07:56:17;27.27;42.38
65972;SHT31;52726;48.852;9.152;2022-08-23T07:58:42;27.34;43.06
65972;SHT31;52726;48.852;9.152;2022-08-23T08:01:23;27.84;40.01
65972;SHT31;52726;48.852;9.152;2022-08-23T08:03:51;27.84;40.74
65972;SHT31;52726;48.852;9.152;2022-08-23T08:06:27;28.03;40.02
65972;SHT31;52726;48.852;9.152;2022-08-23T08:08:53;28.12;39.48
65972;SHT31;52726;48.852;9.152;2022-08-23T08:11:20;28.14;42.20
65972;SHT31;52726;48.852;9.152;2022-08-23T08:13:48;28.37;40.23
65972;SHT31;52726;48.852;9.152;2022-08-23T08:16:29;27.92;40.22
65972;SHT31;52726;48.852;9.152;2022-08-23T08:18:57;27.89;42.16
65972;SHT31;52726;48.852;9.152;2022-08-23T08:21:24;28.43;41.23
65972;SHT31;52726;48.852;9.152;2022-08-23T08:23:51;28.47;41.87
65972;SHT31;52726;48.852;9.152;2022-08-23T08:26:16;28.70;39.77
65972;SHT31;52726;48.852;9.152;2022-08-23T08:28:43;28.30;40.05
65972;SHT31;52726;48.852;9.152;2022-08-23T08:31:09;28.79;40.35
65972;SHT31;52726;48.852;9.152;2022-08-23T08:33:35;28.92;39.48
65972;SHT31;52726;48.852;9.152;2022-08-23T08:36:01;28.99;40.35
65972;SHT31;52726;48.852;9.152;2022-08-23T08:38:27;29.22;38.83
65972;SHT31;52726;48.852;9.152;2022-08-23T08:41:02;29.05;37.00
65972;SHT31;52726;48.852;9.152;2022-08-23T08:48:49;29.92;38.38
65972;SHT31;52726;48.852;9.152;2022-08-23T08:54:14;29.62;36.99
65972;SHT31;52726;48.852;9.152;2022-08-23T08:56:50;29.45;37.25
65972;SHT31;52726;48.852;9.152;2022-08-23T08:59:59;29.60;39.19
65972;SHT31;52726;48.852;9.152;2022-08-23T09:02:32;30.02;35.54
65972;SHT31;52726;48.852;9.152;2022-08-23T09:05:12;30.25;36.28
65972;SHT31;52726;48.852;9.152;2022-08-23T09:13:01;30.45;34.94
65972;SHT31;52726;48.852;9.152;2022-08-23T09:18:11;30.91;34.66
65972;SHT31;52726;48.852;9.152;2022-08-23T09:20:38;30.65;35.82
65972;SHT31;52726;48.852;9.152;2022-08-23T09:23:17;30.80;33.78
65972;SHT31;52726;48.852;9.152;2022-08-23T09:26:22;30.72;32.79
65972;SHT31;52726;48.852;9.152;2022-08-23T09:28:53;30.88;34.19
65972;SHT31;52726;48.852;9.152;2022-08-23T09:31:41;31.07;33.87
65972;SHT31;52726;48.852;9.152;2022-08-23T09:34:08;30.65;31.69
65972;SHT31;52726;48.852;9.152;2022-08-23T09:36:38;30.36;33.33
65972;SHT31;52726;48.852;9.152;2022-08-23T09:39:23;30.36;34.97
65972;SHT31;52726;48.852;9.152;2022-08-23T09:41:49;31.01;32.40
65972;SHT31;52726;48.852;9.152;2022-08-23T09:47:12;30.91;32.08
65972;SHT31;52726;48.852;9.152;2022-08-23T09:49:40;31.15;32.19
65972;SHT31;52726;48.852;9.152;2022-08-23T09:52:11;30.86;30.78
65972;SHT31;52726;48.852;9.152;2022-08-23T09:54:39;30.63;29.66
65972;SHT31;52726;48.852;9.152;2022-08-23T09:57:07;30.55;31.05
65972;SHT31;52726;48.852;9.152;2022-08-23T09:59:42;30.73;31.51
65972;SHT31;52726;48.852;9.152;2022-08-23T10:02:15;30.90;30.63
65972;SHT31;52726;48.852;9.152;2022-08-23T10:07:52;30.98;29.55
65972;SHT31;52726;48.852;9.152;2022-08-23T10:12:44;29.45;30.62
65972;SHT31;52726;48.852;9.152;2022-08-23T10:15:10;29.43;34.20
65972;SHT31;52726;48.852;9.152;2022-08-23T10:20:40;29.87;31.14
65972;SHT31;52726;48.852;9.152;2022-08-23T10:23:31;29.94;30.77
65972;SHT31;52726;48.852;9.152;2022-08-23T10:26:00;29.96;31.12
65972;SHT31;52726;48.852;9.152;2022-08-23T10:28:54;29.60;31.89
65972;SHT31;52726;48.852;9.152;2022-08-23T10:32:00;30.11;31.53
65972;SHT31;52726;48.852;9.152;2022-08-23T10:34:49;30.12;30.29
65972;SHT31;52726;48.852;9.152;2022-08-23T10:40:05;30.02;30.30
65972;SHT31;52726;48.852;9.152;2022-08-23T10:43:19;30.49;30.72
65972;SHT31;52726;48.852;9.152;2022-08-23T10:45:31;30.86;31.24
65972;SHT31;52726;48.852;9.152;2022-08-23T10:48:24;30.19;30.27
65972;SHT31;52726;48.852;9.152;2022-08-23T10:51:00;30.38;29.93
65972;SHT31;52726;48.852;9.152;2022-08-23T10:54:16;30.22;29.32
65972;SHT31;52726;48.852;9.152;2022-08-23T10:56:24;29.98;30.06
65972;SHT31;52726;48.852;9.152;2022-08-23T10:58:53;29.78;30.80
65972;SHT31;52726;48.852;9.152;2022-08-23T11:01:27;29.46;32.63
65972;SHT31;52726;48.852;9.152;2022-08-23T11:14:06;30.19;28.72
65972;SHT31;52726;48.852;9.152;2022-08-23T11:16:33;29.98;30.80
65972;SHT31;52726;48.852;9.152;2022-08-23T11:18:59;30.29;30.59
65972;SHT31;52726;48.852;9.152;2022-08-23T11:28:52;31.04;33.19
65972;SHT31;52726;48.852;9.152;2022-08-23T11:31:27;31.24;30.11
65972;SHT31;52726;48.852;9.152;2022-08-23T11:34:03;31.07;30.01
65972;SHT31;52726;48.852;9.152;2022-08-23T11:36:30;30.83;29.28
65972;SHT31;52726;48.852;9.152;2022-08-23T11:39:03;30.01;30.45
65972;SHT31;52726;48.852;9.152;2022-08-23T11:44:24;28.68;31.17
65972;SHT31;52726;48.852;9.152;2022-08-23T11:55:04;29.67;29.68
65972;SHT31;52726;48.852;9.152;2022-08-23T11:57:46;29.69;29.57
65972;SHT31;52726;48.852;9.152;2022-08-23T12:02:51;30.00;29.95
65972;SHT31;52726;48.852;9.152;2022-08-23T12:05:27;30.07;30.18
65972;SHT31;52726;48.852;9.152;2022-08-23T12:16:08;30.07;29.57
65972;SHT31;52726;48.852;9.152;2022-08-23T12:18:54;29.87;29.45
65972;SHT31;52726;48.852;9.152;2022-08-23T12:24:00;29.67;29.80
65972;SHT31;52726;48.852;9.152;2022-08-23T12:29:45;30.10;31.20
65972;SHT31;52726;48.852;9.152;2022-08-23T12:32:40;30.29;30.88
65972;SHT31;52726;48.852;9.152;2022-08-23T12:40:50;30.69;31.88
65972;SHT31;52726;48.852;9.152;2022-08-23T12:43:25;30.62;29.74
65972;SHT31;52726;48.852;9.152;2022-08-23T12:45:56;30.55;30.71
65972;SHT31;52726;48.852;9.152;2022-08-23T12:48:28;30.32;31.43
65972;SHT31;52726;48.852;9.152;2022-08-23T12:50:58;30.36;29.38
65972;SHT31;52726;48.852;9.152;2022-08-23T12:56:00;30.07;30.99
65972;SHT31;52726;48.852;9.152;2022-08-23T12:58:29;30.46;30.93
65972;SHT31;52726;48.852;9.152;2022-08-23T13:00:57;30.31;30.95
65972;SHT31;52726;48.852;9.152;2022-08-23T13:05:54;30.40;30.82
65972;SHT31;52726;48.852;9.152;2022-08-23T13:10:54;30.84;31.20
65972;SHT31;52726;48.852;9.152;2022-08-23T13:13:24;30.62;30.70
65972;SHT31;52726;48.852;9.152;2022-08-23T13:15:53;30.62;30.22
65972;SHT31;52726;48.852;9.152;2022-08-23T13:18:40;30.55;30.07
65972;SHT31;52726;48.852;9.152;2022-08-23T13:23:50;30.83;29.77
65972;SHT31;52726;48.852;9.152;2022-08-23T13:26:33;30.96;30.29
65972;SHT31;52726;48.852;9.152;2022-08-23T13:29:01;30.67;29.23
65972;SHT31;52726;48.852;9.152;2022-08-23T13:31:59;30.38;29.80
65972;SHT31;52726;48.852;9.152;2022-08-23T13:34:42;30.38;30.96
65972;SHT31;52726;48.852;9.152;2022-08-23T13:39:48;29.91;32.27
65972;SHT31;52726;48.852;9.152;2022-08-23T13:42:24;29.98;30.89
65972;SHT31;52726;48.852;9.152;2022-08-23T13:44:50;30.55;29.78
65972;SHT31;52726;48.852;9.152;2022-08-23T13:47:21;30.25;30.82
65972;SHT31;52726;48.852;9.152;2022-08-23T13:49:46;29.96;30.83
65972;SHT31;52726;48.852;9.152;2022-08-23T13:52:12;29.92;31.52
65972;SHT31;52726;48.852;9.152;2022-08-23T13:54:37;30.21;30.26
65972;SHT31;52726;48.852;9.152;2022-08-23T13:57:07;30.28;29.56
65972;SHT31;52726;48.852;9.152;2022-08-23T13:59:40;30.02;30.08
65972;SHT31;52726;48.852;9.152;2022-08-23T14:02:11;29.42;32.02
65972;SHT31;52726;48.852;9.152;2022-08-23T14:04:39;29.52;32.84
65972;SHT31;52726;48.852;9.152;2022-08-23T14:07:05;29.49;32.79
65972;SHT31;52726;48.852;9.152;2022-08-23T14:09:30;29.20;31.86
65972;SHT31;52726;48.852;9.152;2022-08-23T14:12:00;29.09;34.19
65972;SHT31;52726;48.852;9.152;2022-08-23T14:14:30;29.27;31.53
65972;SHT31;52726;48.852;9.152;2022-08-23T14:16:56;29.53;32.46
65972;SHT31;52726;48.852;9.152;2022-08-23T14:19:21;29.54;31.18
65972;SHT31;52726;48.852;9.152;2022-08-23T14:21:46;29.69;31.41
65972;SHT31;52726;48.852;9.152;2022-08-23T14:24:12;29.70;31.99
65972;SHT31;52726;48.852;9.152;2022-08-23T14:26:37;29.94;30.67
65972;SHT31;52726;48.852;9.152;2022-08-23T14:29:03;29.94;31.86
65972;SHT31;52726;48.852;9.152;2022-08-23T14:31:29;29.83;31.05
65972;SHT31;52726;48.852;9.152;2022-08-23T14:33:55;30.19;32.57
65972;SHT31;52726;48.852;9.152;2022-08-23T14:36:20;30.36;30.09
65972;SHT31;52726;48.852;9.152;2022-08-23T14:38:46;30.01;29.83
65972;SHT31;52726;48.852;9.152;2022-08-23T14:41:18;29.70;30.79
65972;SHT31;52726;48.852;9.152;2022-08-23T14:43:45;29.83;31.65
65972;SHT31;52726;48.852;9.152;2022-08-23T14:46:11;30.11;29.85
65972;SHT31;52726;48.852;9.152;2022-08-23T14:48:36;29.78;30.75
65972;SHT31;52726;48.852;9.152;2022-08-23T14:51:02;29.77;31.81
65972;SHT31;52726;48.852;9.152;2022-08-23T14:53:30;29.98;32.06
65972;SHT31;52726;48.852;9.152;2022-08-23T14:55:56;29.71;31.86
65972;SHT31;52726;48.852;9.152;2022-08-23T14:58:23;29.98;30.47
65972;SHT31;52726;48.852;9.152;2022-08-23T15:00:49;30.02;31.47
65972;SHT31;52726;48.852;9.152;2022-08-23T15:03:19;30.17;32.23
65972;SHT31;52726;48.852;9.152;2022-08-23T15:05:46;30.27;29.97
65972;SHT31;52726;48.852;9.152;2022-08-23T15:08:11;29.97;31.22
65972;SHT31;52726;48.852;9.152;2022-08-23T15:10:37;29.88;32.83
65972;SHT31;52726;48.852;9.152;2022-08-23T15:13:02;30.15;31.74
65972;SHT31;52726;48.852;9.152;2022-08-23T15:15:28;30.25;31.47
65972;SHT31;52726;48.852;9.152;2022-08-23T15:17:59;30.22;31.23
65972;SHT31;52726;48.852;9.152;2022-08-23T15:20:30;30.22;30.92
65972;SHT31;52726;48.852;9.152;2022-08-23T15:22:56;30.40;31.33
65972;SHT31;52726;48.852;9.152;2022-08-23T15:25:23;30.39;30.08
65972;SHT31;52726;48.852;9.152;2022-08-23T15:27:50;30.42;31.44
65972;SHT31;52726;48.852;9.152;2022-08-23T15:30:16;30.52;31.99
65972;SHT31;52726;48.852;9.152;2022-08-23T15:32:43;30.56;30.92
65972;SHT31;52726;48.852;9.152;2022-08-23T15:35:08;30.52;31.09
65972;SHT31;52726;48.852;9.152;2022-08-23T15:37:34;30.60;30.73
65972;SHT31;52726;48.852;9.152;2022-08-23T15:40:00;30.56;30.06
65972;SHT31;52726;48.852;9.152;2022-08-23T15:42:26;30.38;31.74
65972;SHT31;52726;48.852;9.152;2022-08-23T15:44:51;30.08;31.10
65972;SHT31;52726;48.852;9.152;2022-08-23T15:50:11;29.71;32.15
65972;SHT31;52726;48.852;9.152;2022-08-23T15:52:37;29.62;33.80
65972;SHT31;52726;48.852;9.152;2022-08-23T15:55:03;29.56;33.33
65972;SHT31;52726;48.852;9.152;2022-08-23T15:57:29;29.56;31.94
65972;SHT31;52726;48.852;9.152;2022-08-23T15:59:57;29.67;31.82
65972;SHT31;52726;48.852;9.152;2022-08-23T16:02:23;29.70;31.90
65972;SHT31;52726;48.852;9.152;2022-08-23T16:04:48;29.85;32.59
65972;SHT31;52726;48.852;9.152;2022-08-23T16:07:15;29.85;33.36
65972;SHT31;52726;48.852;9.152;2022-08-23T16:09:41;29.87;33.85
65972;SHT31;52726;48.852;9.152;2022-08-23T16:12:07;29.90;31.18
65972;SHT31;52726;48.852;9.152;2022-08-23T16:14:34;29.88;31.69
65972;SHT31;52726;48.852;9.152;2022-08-23T16:17:00;29.87;32.28
65972;SHT31;52726;48.852;9.152;2022-08-23T16:19:26;29.81;31.15
65972;SHT31;52726;48.852;9.152;2022-08-23T16:21:51;29.87;30.59
65972;SHT31;52726;48.852;9.152;2022-08-23T16:24:21;29.73;30.96
65972;SHT31;52726;48.852;9.152;2022-08-23T16:26:48;29.63;31.68
65972;SHT31;52726;48.852;9.152;2022-08-23T16:29:17;29.49;33.47
65972;SHT31;52726;48.852;9.152;2022-08-23T16:31:43;29.19;33.43
65972;SHT31;52726;48.852;9.152;2022-08-23T16:34:11;29.20;34.30
65972;SHT31;52726;48.852;9.152;2022-08-23T16:36:38;29.22;33.26
65972;SHT31;52726;48.852;9.152;2022-08-23T16:39:05;29.22;31.61
65972;SHT31;52726;48.852;9.152;2022-08-23T16:41:31;29.09;34.26
65972;SHT31;52726;48.852;9.152;2022-08-23T16:43:56;28.99;32.81
65972;SHT31;52726;48.852;9.152;2022-08-23T16:46:22;28.84;33.81
65972;SHT31;52726;48.852;9.152;2022-08-23T16:48:48;28.97;31.95
65972;SHT31;52726;48.852;9.152;2022-08-23T16:51:13;28.71;33.34
65972;SHT31;52726;48.852;9.152;2022-08-23T16:53:39;28.65;33.09
65972;SHT31;52726;48.852;9.152;2022-08-23T16:56:05;28.68;35.67
65972;SHT31;52726;48.852;9.152;2022-08-23T16:58:31;28.70;35.15
65972;SHT31;52726;48.852;9.152;2022-08-23T17:00:56;28.54;34.75
65972;SHT31;52726;48.852;9.152;2022-08-23T17:03:22;28.51;34.73
65972;SHT31;52726;48.852;9.152;2022-08-23T17:05:48;28.36;33.81
65972;SHT31;52726;48.852;9.152;2022-08-23T17:08:13;28.36;34.29
65972;SHT31;52726;48.852;9.152;2022-08-23T17:10:39;28.39;33.43
65972;SHT31;52726;48.852;9.152;2022-08-23T17:13:06;28.43;34.28
65972;SHT31;52726;48.852;9.152;2022-08-23T17:15:34;28.32;35.55
65972;SHT31;52726;48.852;9.152;2022-08-23T17:18:00;28.19;34.83
65972;SHT31;52726;48.852;9.152;2022-08-23T17:20:28;28.26;34.00
65972;SHT31;52726;48.852;9.152;2022-08-23T17:22:54;28.27;33.88